Weather observations for the past three days for
Spearfish / Clyde Ice
Metric (Imperial)
Date Time (mdt) Wind (kph) Vis. (km) Weather Sky Cond. Temperature (ºC) Relative Humidity Wind Chill (°C) Heat Index (°C) Pressure Precipitation (cm)
Air Dwpt 6 hour altimeter (cm) sea level (mb) 1 hr 3 hr 6 hr
Max. Min.
03 21:55 SE 17 16.09 Fair CLR 21 9 46% 76.02 0.0
03 21:35 SE 15 16.09 Fair CLR 22 9 44% 76.02 0.0
03 21:15 SE 9 16.09 Fair CLR 21 8 43% 76 0.0
03 20:55 Vrbl 11 16.09 Fair CLR 23 8 38% 76 0.0
03 20:35 SE 13 16.09 Fair CLR 22 8 41% 75.97 0.0
03 20:15 SE 20 16.09 Fair CLR 24 8 36% 25 75.95 0.0
03 19:55 SE 22 16.09 Fair CLR 25 8 34% 26 75.92 0.0
03 19:35 SE 19 16.09 Fair CLR 25 8 34% 26 75.92 0.0
03 19:15 E 24 16.09 Fair CLR 27 7 28% 26 75.9 0.0
03 18:55 E 15 16.09 Fair CLR 28 6 25% 27 75.9 0.0
03 18:35 E 19 16.09 Fair CLR 29 5 22% 28 75.87 0.0
03 18:15 E 20 G 31 16.09 Fair CLR 30 5 20% 28 75.87 0.0
03 17:55 E 22 16.09 Fair CLR 30 6 22% 28 75.87 0.0
03 17:35 E 19 16.09 Fair CLR 30 6 22% 28 75.87 0.0
03 17:15 E 24 16.09 Fair CLR 31 6 21% 29 75.84 0.0
03 16:55 E 19 G 31 16.09 Fair CLR 31 6 21% 29 75.84 0.0
03 16:15 E 24 16.09 Fair CLR 31 6 21% 29 75.82 0.0
03 15:55 E 22 G 35 16.09 Fair CLR 31 6 21% 29 75.84 0.0
03 15:35 E 26 16.09 Fair CLR 31 7 22% 29 75.84 0.0
03 15:15 E 17 G 30 16.09 Fair CLR 30 6 22% 28 75.84 0.0
03 14:55 E 22 G 33 16.09 Fair CLR 30 6 22% 28 75.87 0.0
03 14:35 E 11 G 22 16.09 Fair CLR 29 6 23% 28 75.87 0.0
03 14:15 E 13 16.09 Fair CLR 29 6 23% 28 75.87 0.0
03 13:55 NE 17 G 26 16.09 Fair CLR 30 8 25% 28 75.9 0.0
03 13:35 E 15 16.09 Fair CLR 29 6 23% 28 75.9 0.0
03 13:15 Vrbl 9 G 28 16.09 Fair CLR 28 7 26% 27 75.92 0.0
03 12:55 N 19 16.09 Fair CLR 28 8 28% 27 75.92 0.0
03 12:35 NE 15 G 24 16.09 Fair CLR 28 8 28% 27 75.92 0.0
03 12:15 NE 22 16.09 Fair CLR 28 7 26% 27 75.92 0.0
03 11:55 NE 24 16.09 Fair CLR 29 5 22% 28 75.92 0.0
03 11:35 N 22 16.09 Fair CLR 28 6 25% 27 75.92 0.0
03 11:15 N 15 G 26 16.09 Fair CLR 28 5 23% 27 75.92 0.0
03 10:55 N 13 16.09 Fair CLR 28 3 20% 27 75.92 0.0
03 10:35 N 17 16.09 Fair CLR 28 4 21% 27 75.92 0.0
03 10:15 N 15 16.09 Fair CLR 28 5 23% 27 75.92 0.0
03 09:55 NW 9 G 24 16.09 Fair CLR 27 5 24% 26 75.92 0.0
03 09:35 Vrbl 11 16.09 Fair CLR 27 6 26% 26 75.9 0.0
03 09:15 W 13 16.09 Fair CLR 25 5 28% 25 75.87 0.0
03 08:55 SW 11 16.09 Fair CLR 24 5 29% 25 75.87 0.0
03 08:35 W 15 16.09 Fair CLR 24 5 29% 25 75.87 0.0
03 08:15 W 13 G 24 16.09 Fair CLR 24 5 29% 25 75.87 0.0
03 07:55 W 11 16.09 Fair CLR 24 6 31% 25 75.87 0.0
03 07:35 SW 22 16.09 Fair CLR 24 5 29% 25 75.84 0.0
03 07:15 W 19 16.09 Fair CLR 23 5 31% 75.82 0.0
03 06:35 SW 24 G 37 16.09 Fair CLR 24 4 27% 25 75.79 0.0
03 06:15 SW 20 G 33 16.09 Fair CLR 24 4 27% 25 75.77 0.0
03 05:55 SW 28 G 46 16.09 Fair CLR 24 4 27% 25 75.77 0.0
03 05:35 SW 26 G 43 16.09 Fair CLR 25 4 26% 25 75.77 0.0
03 05:15 SW 33 G 43 16.09 Fair and Breezy CLR 24 4 27% 25 75.74 0.0
03 04:55 SW 35 G 48 16.09 Fair and Breezy CLR 25 4 26% 25 75.74 0.0
03 04:35 SW 31 G 44 16.09 Fair CLR 25 4 26% 25 75.72 0.0
03 04:15 SW 39 16.09 Fair and Breezy CLR 25 4 26% 25 75.72 0.0
03 03:55 SW 33 G 52 16.09 Fair and Breezy CLR 26 4 24% 26 75.74 0.0
03 03:35 SW 31 G 44 16.09 Fair CLR 26 4 24% 26 75.72 0.0
03 03:15 SW 28 16.09 Fair CLR 25 4 26% 25 75.72 0.0
03 02:55 SW 30 G 41 16.09 Fair CLR 25 5 28% 25 75.72 0.0
03 02:35 SW 26 16.09 Fair CLR 25 6 30% 25 75.72 0.0
03 02:15 SW 28 G 39 16.09 Fair CLR 25 6 30% 25 75.72 0.0
03 01:55 SW 31 G 44 16.09 Fair CLR 26 6 28% 26 75.72 0.0
03 01:35 SW 33 G 43 16.09 Fair and Breezy CLR 26 6 28% 26 75.72 0.0
03 01:15 SW 22 16.09 Fair CLR 25 6 30% 25 75.74 0.0
03 00:55 SW 22 G 31 16.09 Fair CLR 25 6 30% 25 75.72 0.0
03 00:35 SW 24 16.09 Fair CLR 25 5 28% 25 75.74 0.0
03 00:15 S 22 16.09 Fair CLR 24 6 31% 25 75.74 0.0
02 23:55 S 22 16.09 Fair CLR 24 6 31% 25 75.74 0.0
02 23:35 S 22 16.09 Fair CLR 23 6 33% 75.74 0.0
02 23:15 S 20 16.09 Fair CLR 22 6 36% 75.77 0.0
02 22:55 S 22 16.09 Fair CLR 23 6 33% 75.79 0.0
02 22:35 S 19 16.09 Fair CLR 24 6 31% 25 75.79 0.0
02 22:15 S 7 16.09 Fair CLR 22 6 36% 75.82 0.0
02 21:55 Calm 16.09 Fair CLR 21 6 38% 75.82 0.0
02 21:35 Calm 16.09 Fair CLR 23 5 31% 75.82 0.0
02 21:15 S 17 16.09 Fair CLR 22 6 36% 75.79 0.0
02 20:55 S 15 16.09 Fair CLR 22 6 36% 75.79 0.0
02 20:35 S 17 16.09 Fair CLR 23 6 33% 75.77 0.0
02 20:15 S 19 16.09 Fair CLR 23 6 33% 75.77 0.0
02 19:55 S 19 16.09 Fair CLR 24 5 29% 25 75.74 0.0
02 19:35 S 13 16.09 Fair CLR 26 4 24% 26 75.74 0.0
02 19:15 SW 9 16.09 Fair CLR 28 4 21% 27 75.74 0.0
02 18:55 SW 11 G 20 16.09 Fair CLR 30 4 19% 28 75.74 0.0
02 18:35 W 17 G 30 16.09 Fair CLR 31 3 17% 29 75.74 0.0
02 18:15 W 19 G 39 16.09 Fair CLR 32 3 16% 30 75.74 0.0
02 17:55 W 22 G 41 16.09 Fair CLR 32 3 16% 30 75.74 0.0
02 17:35 W 22 G 44 16.09 Fair CLR 33 2 14% 31 75.74 0.0
02 17:15 W 19 G 33 16.09 Fair CLR 33 2 14% 31 75.74 0.0
02 16:55 SW 24 G 41 16.09 Fair CLR 32 3 16% 30 75.74 0.0
02 16:35 SW 24 G 35 16.09 A Few Clouds FEW110 32 3 16% 30 75.74 0.0
02 16:15 SW 20 G 33 16.09 A Few Clouds FEW110 32 4 17% 30 75.77 0.0
02 15:55 SW 19 G 43 16.09 Fair CLR 33 5 17% 31 75.77 0.0
02 15:35 SW 26 G 41 16.09 Fair CLR 34 4 15% 32 75.77 0.0
02 15:15 SW 24 G 41 16.09 A Few Clouds FEW110 34 4 15% 32 75.77 0.0
02 14:55 SE 17 G 37 16.09 Partly Cloudy SCT110 30 13 35% 29 75.79 0.0
02 14:35 SE 22 G 33 16.09 A Few Clouds FEW110 30 11 31% 29 75.82 0.0
02 14:15 E 15 G 28 16.09 Fair CLR 30 13 35% 29 75.84 0.0
02 13:55 SE 22 16.09 A Few Clouds FEW110 30 12 33% 29 75.84 0.0
02 13:35 E 17 G 30 16.09 Fair CLR 30 11 31% 29 75.87 0.0
02 13:15 E 17 G 28 16.09 Fair CLR 29 13 37% 28 75.9 0.0
02 12:55 NE 17 16.09 Fair CLR 29 13 37% 28 75.92 0.0
02 12:35 E 15 G 24 16.09 Fair CLR 28 13 40% 28 75.95 0.0
02 12:15 E 17 G 26 16.09 Fair CLR 27 13 42% 27 75.97 0.0
02 11:55 NE 20 16.09 Fair CLR 26 14 48% 26 76.02 0.0
02 11:35 NE 17 16.09 Fair CLR 26 14 48% 26 76.02 0.0
02 11:15 N 19 16.09 Fair CLR 25 15 54% 26 76.02 0.0
02 10:55 NE 19 16.09 Fair CLR 25 15 54% 26 76.02 0.0
02 10:35 NE 13 16.09 Fair CLR 24 15 57% 25 76.02 0.0
02 10:15 NE 9 16.09 Fair CLR 23 14 57% 76.05 0.0
02 09:55 NE 7 16.09 Fair CLR 22 14 61% 76.05 0.0
02 09:35 Vrbl 11 16.09 Fair CLR 21 14 64% 76.05 0.0
02 09:15 NE 9 16.09 Fair CLR 20 15 73% 76.05 0.0
02 08:55 NE 9 16.09 Fair CLR 19 15 78% 76.05 0.0
02 08:35 E 7 16.09 Fair CLR 19 15 78% 76.07 0.0
02 08:15 Calm 16.09 Fair CLR 18 16 88% 76.07 0.0
02 07:55 Calm 16.09 Fair CLR 17 15 88% 76.07 0.0
02 07:35 Calm 16.09 Fair CLR 15 15 100% 76.07 0.0
02 07:15 Calm 16.09 Fair CLR 14 14 100% 76.07 0.0
02 06:55 Calm 16.09 Fair CLR 13 13 100% 76.07 0.0
02 06:35 SE 6 16.09 Fair CLR 12 12 100% 76.05 0.0
02 06:15 S 9 16.09 Fair CLR 13 13 100% 76.05 0.0
02 05:55 Calm 16.09 Fair CLR 12 12 100% 76.05 0.0
02 05:35 SW 6 16.09 Fair CLR 12 12 100% 76.05 0.0
02 05:15 SW 7 16.09 Fair CLR 12 12 100% 76.05 0.0
02 04:55 S 6 16.09 Fair CLR 12 12 100% 76.05 0.0
02 04:35 S 7 16.09 Fair CLR 12 12 100% 76.05 0.0
02 04:15 Calm 16.09 Fair CLR 12 12 100% 76.05 0.0
02 03:55 SE 6 16.09 Fair CLR 13 13 100% 76.05 0.0
02 03:35 S 6 16.09 Fair CLR 12 12 100% 76.05 0.0
02 03:15 S 9 16.09 Fair CLR 13 13 100% 76.05 0.0
02 02:55 Calm 16.09 Fair CLR 13 13 100% 76.05 0.0
02 02:35 SW 6 16.09 Fair CLR 13 13 100% 76.05 0.0
02 02:15 SW 6 16.09 Fair CLR 14 14 100% 76.07 0.0
02 01:55 SW 7 16.09 Fair CLR 14 14 100% 76.07 0.0
02 01:35 SW 9 16.09 Fair CLR 14 14 100% 76.07 0.0
02 01:15 SW 6 16.09 Fair CLR 14 14 100% 76.07 0.0
02 00:55 W 9 16.09 Fair CLR 15 14 94% 76.07 0.0
02 00:35 W 11 16.09 Fair CLR 15 14 94% 76.07 0.0
02 00:15 Calm 16.09 Fair CLR 17 15 88% 76.07 0.0
01 23:55 E 17 16.09 Fair CLR 18 15 83% 76.1 0.0
01 23:35 Calm 16.09 Fair CLR 18 15 83% 76.1 0.0
01 23:15 NE 11 16.09 A Few Clouds FEW095 18 14 78% 76.1 0.0
01 22:55 E 17 16.09 Fair CLR 18 15 83% 76.1 0.0
01 22:35 E 13 16.09 Fair CLR 18 15 83% 76.1 0.0
01 22:15 E 15 16.09 A Few Clouds FEW100 18 14 78% 76.12 0.0
01 21:55 E 13 G 24 16.09 A Few Clouds FEW100 18 14 78% 76.12 0.0
01 21:35 E 13 16.09 Mostly Cloudy BKN100 17 14 83% 76.12 0.0
01 20:55 E 11 16.09 Partly Cloudy SCT100 18 14 78% 76.12 0.0
01 20:35 E 13 16.09 Mostly Cloudy FEW028 SCT080 BKN110 18 14 78% 76.12 0.0
01 20:15 E 13 16.09 Mostly Cloudy FEW031 SCT080 BKN100 18 13 73% 76.12 0.0
01 19:55 E 13 16.09 Partly Cloudy SCT110 18 13 73% 76.12 0.0
01 19:35 SE 15 16.09 Partly Cloudy SCT100 18 13 73% 76.12 0.0
01 19:15 E 17 16.09 Mostly Cloudy BKN100 19 13 68% 76.12 0.0
01 18:55 E 20 16.09 Mostly Cloudy FEW075 BKN100 20 13 64% 76.15 0.0
01 18:35 E 24 16.09 A Few Clouds FEW075 21 14 64% 76.15 0.0
01 18:15 E 20 16.09 Fair CLR 20 15 73% 76.15 0.0
01 17:55 E 19 16.09 Fair CLR 20 15 73% 76.15 0.0
01 17:35 E 20 16.09 Light Rain CLR 20 16 78% 76.15 0.0
01 17:15 E 24 9.66 Light Rain FEW034 FEW060 SCT075 21 15 69% 76.17 0.0
01 16:55 E 20 16.09 Mostly Cloudy SCT075 BKN090 22 14 61% 76.17 0.0
01 16:35 E 22 16.09 Mostly Cloudy FEW075 BKN090 21 14 64% 76.17 0.0
01 16:15 E 19 G 30 14.48 Light Rain FEW041 SCT055 BKN065 21 14 64% 76.2 0.0
01 15:55 SE 24 16.09 Mostly Cloudy SCT041 BKN060 BKN070 22 12 53% 76.17 0.0
01 15:35 E 22 16.09 Mostly Cloudy BKN060 BKN080 23 13 53% 76.2 0.0
01 15:15 E 24 16.09 Mostly Cloudy SCT065 BKN080 BKN090 23 12 50% 76.2 0.0
01 14:55 E 20 16.09 Mostly Cloudy SCT065 BKN075 BKN095 22 12 53% 76.2 0.0
01 14:35 E 17 G 26 16.09 Mostly Cloudy BKN065 23 11 47% 76.23 0.0
01 14:15 E 17 16.09 Overcast OVC070 24 11 44% 25 76.25 0.0
01 13:55 NE 11 16.09 Overcast OVC065 22 12 53% 76.28 0.0
01 13:35 Calm 16.09 Overcast OVC065 21 12 57% 76.28 0.0
01 13:15 Calm 16.09 Overcast OVC070 21 12 57% 76.28 0.0
01 12:55 Calm 16.09 Overcast OVC070 20 12 60% 76.28 0.0
01 12:35 Calm 16.09 Overcast FEW049 OVC070 19 9 52% 76.3 0.0
01 12:15 W 7 16.09 Overcast FEW042 SCT060 OVC075 19 8 49% 76.33 0.0
01 11:55 W 6 16.09 Mostly Cloudy BKN080 20 9 49% 76.33 0.0
01 11:35 Calm 16.09 Partly Cloudy SCT085 20 9 49% 76.33 0.0
01 11:15 W 9 16.09 A Few Clouds FEW070 FEW090 19 10 56% 76.33 0.0
01 10:55 NW 9 16.09 Partly Cloudy FEW065 SCT090 22 11 50% 76.33 0.0
01 10:35 S 7 16.09 Fair CLR 23 12 50% 76.33 0.0
01 10:15 Vrbl 7 16.09 Fair CLR 23 12 50% 76.3 0.0
01 09:55 SE 7 16.09 Fair CLR 23 14 57% 76.33 0.0
01 09:35 SE 13 16.09 Fair CLR 23 13 53% 76.33 0.0
01 09:15 SE 20 16.09 Fair CLR 23 13 53% 76.3 0.0
01 08:55 SE 19 16.09 A Few Clouds FEW110 22 10 47% 76.33 0.0
01 08:35 E 24 16.09 A Few Clouds FEW110 21 8 43% 76.33 0.0
01 08:15 E 19 16.09 Fair CLR 21 7 40% 76.33 0.0
01 07:55 Vrbl 11 16.09 Fair CLR 20 6 40% 76.33 0.0
01 07:35 E 19 16.09 Fair CLR 20 6 40% 76.33 0.0
01 07:15 E 17 16.09 Fair CLR 19 5 40% 76.33 0.0
01 06:55 E 11 16.09 Fair CLR 18 4 40% 76.33 0.0
01 06:35 Calm 16.09 Fair CLR 17 4 42% 76.3 0.0
01 06:15 E 11 16.09 Fair CLR 18 4 40% 76.28 0.0
01 05:55 E 15 16.09 Fair CLR 17 3 39% 76.28 0.0
01 05:35 E 13 16.09 Fair CLR 17 2 37% 76.3 0.0
01 05:15 E 11 16.09 Fair CLR 17 2 37% 76.33 0.0
01 04:55 E 15 16.09 Fair CLR 17 2 37% 76.33 0.0
01 04:35 E 13 16.09 Fair CLR 17 2 37% 76.33 0.0
01 04:15 E 9 16.09 Fair CLR 16 2 39% 76.35 0.0
01 03:55 E 7 16.09 Fair CLR 16 2 39% 76.35 0.0
01 03:35 SE 9 16.09 Fair CLR 15 2 42% 76.38 0.0
01 03:15 E 11 16.09 Fair CLR 15 2 42% 76.38 0.0
01 02:55 SE 11 16.09 Fair CLR 16 1 36% 76.38 0.0
01 02:35 SE 9 16.09 Fair CLR 16 1 36% 76.38 0.0
01 02:15 E 9 16.09 Fair CLR 15 1 39% 76.38 0.0
01 01:55 SE 6 16.09 Fair CLR 13 2 47% 76.4 0.0
01 01:35 SE 7 16.09 Fair CLR 14 1 41% 76.43 0.0
01 01:15 SE 7 16.09 Fair CLR 13 2 47% 76.43 0.0
01 00:55 Calm 16.09 Fair CLR 12 2 51% 76.43 0.0
01 00:35 SE 9 16.09 Fair CLR 15 1 39% 76.45 0.0
01 00:15 SE 7 16.09 Fair CLR 13 2 47% 76.45 0.0
31 23:55 E 11 16.09 Fair CLR 14 2 44% 76.45 0.0
31 23:35 Calm 16.09 Fair CLR 16 2 39% 76.48 0.0
31 23:15 S 6 16.09 Fair CLR 15 2 42% 76.45 0.0
31 22:55 SE 6 16.09 Fair CLR 16 2 39% 76.45 0.0
31 22:35 S 6 16.09 Fair CLR 15 2 42% 76.45 0.0
31 22:15 S 11 16.09 Fair CLR 16 2 39% 76.45 0.0
Date Time (mdt) Wind (kph) Vis. (km) Weather Sky Cond. Air Dwpt Max. Min. Relative Humidity Wind Chill (°C) Heat Index (°C) altimeter (cm) sea level (mb) 1 hr 3 hr 6 hr
6 hour
Temperature (ºC) Pressure Precipitation (cm)